Trancoso, Brazil
Current Conditions -  °F | °C
As of 6:00 AM on Wednesday 22 Oct 2014 (Local Time) from SBPS Reporting Station
Moderate Rain Moderate Rain  
Wind Chill: 70°   Ceiling: 3000
Heat Index: 70°   Visibility: 1.2mi
Dew Point: 70°   Wind: 2mph
Humidity: 100%   Direction: 280°W
Pressure: 30.03"   Gusts: NA
Location:  16.58°S, 39.09°W
Report Text: SBPS 220900Z 28002KT 2000 RA BR SCT002 OVC030 21/21 Q1017
Loading
Personal Weather Stations






























Interactive Weather Map
Tropical Storm Tracking
New forecast layout! Learn more

10-Day Weather Forecast

Advertisements
Track Severe Weather on mobile